Time;durP1;ratioP1;P1;durP2;ratioP2;P2;SDS_P1;SDS_P2;PMS_P1;PMS_P2;Temp;Humidity;BMP_temperature;BMP_pressure;BME280_temperature;BME280_humidity;BME280_pressure;Samples;Min_cycle;Max_cycle;Signal;HPM_P1;HPM_P2
2022/06/28 00:00:50;;;;;;;6.47;5.88;;;21.10;99.90;;;;;;4589876;19;20011;-37
2022/06/28 00:02:23;;;;;;;7.32;6.13;;;21.10;99.90;;;;;;4589588;19;20015;-37
2022/06/28 00:03:56;;;;;;;7.22;6.57;;;21.10;99.90;;;;;;4590269;19;20027;-33
2022/06/28 00:05:29;;;;;;;6.82;6.22;;;21.10;99.90;;;;;;4587264;19;20063;-36
2022/06/28 00:07:00;;;;;;;7.50;6.63;;;21.10;99.90;;;;;;4589652;19;20007;-34
2022/06/28 00:08:36;;;;;;;7.68;6.90;;;21.10;99.90;;;;;;4589808;19;20017;-37
2022/06/28 00:10:16;;;;;;;7.22;6.53;;;21.10;99.90;;;;;;4589525;19;20014;-33
2022/06/28 00:11:51;;;;;;;8.68;6.38;;;21.10;99.90;;;;;;4590103;19;20018;-34
2022/06/28 00:13:22;;;;;;;7.40;6.70;;;21.10;99.90;;;;;;4590313;19;20007;-32
2022/06/28 00:16:43;;;;;;;7.15;6.45;;;21.10;99.90;;;;;;4589864;19;20032;-32
2022/06/28 00:18:15;;;;;;;7.20;6.55;;;21.10;99.90;;;;;;4587719;19;20022;-32
2022/06/28 00:19:46;;;;;;;7.55;6.50;;;21.10;99.90;;;;;;4590162;19;20005;-41
2022/06/28 00:21:18;;;;;;;7.47;5.75;;;21.00;99.90;;;;;;4593933;19;20007;-33
2022/06/28 00:22:49;;;;;;;;;;;21.00;99.90;;;;;;4595043;19;20468;-34
2022/06/28 00:24:20;;;;;;;8.48;6.93;;;21.00;99.90;;;;;;4592985;19;19986;-34
2022/06/28 00:25:51;;;;;;;6.82;6.13;;;21.00;99.90;;;;;;4594270;19;20096;-35
2022/06/28 00:27:22;;;;;;;6.22;5.63;;;21.10;99.90;;;;;;4593958;19;20034;-33
2022/06/28 00:28:53;;;;;;;7.05;6.35;;;21.00;99.90;;;;;;4594110;19;20014;-37
2022/06/28 00:30:24;;;;;;;7.25;6.55;;;21.00;99.90;;;;;;4594264;19;20014;-39
2022/06/28 00:31:55;;;;;;;7.22;6.53;;;21.00;99.90;;;;;;4592744;19;20356;-33
2022/06/28 00:33:26;;;;;;;7.53;6.60;;;21.00;99.90;;;;;;4593312;19;20029;-40
2022/06/28 00:34:57;;;;;;;6.80;6.15;;;21.00;99.90;;;;;;4594172;19;20014;-34
2022/06/28 00:36:28;;;;;;;7.25;6.43;;;21.00;99.90;;;;;;4594581;19;20026;-34
2022/06/28 00:37:59;;;;;;;7.13;6.50;;;21.00;99.90;;;;;;4592490;19;20078;-34
2022/06/28 00:39:30;;;;;;;7.18;6.47;;;21.00;99.90;;;;;;4594152;19;20030;-36
2022/06/28 00:41:01;;;;;;;8.05;6.68;;;20.90;99.90;;;;;;4594396;19;20033;-38
2022/06/28 00:42:32;;;;;;;8.05;7.25;;;21.00;99.90;;;;;;4593940;19;20014;-33
2022/06/28 00:44:04;;;;;;;7.60;6.90;;;20.90;99.90;;;;;;4591078;19;20014;-35
2022/06/28 00:45:35;;;;;;;7.25;6.55;;;20.90;99.90;;;;;;4591243;19;20020;-33
2022/06/28 00:47:07;;;;;;;6.78;6.18;;;20.90;99.90;;;;;;4592845;19;20011;-34
2022/06/28 00:48:38;;;;;;;7.15;6.45;;;20.90;99.90;;;;;;4593240;19;20026;-37
2022/06/28 00:50:11;;;;;;;6.72;5.95;;;20.90;99.90;;;;;;4593850;19;20014;-36
2022/06/28 00:51:42;;;;;;;7.18;6.55;;;20.90;99.90;;;;;;4593545;19;20329;-33
2022/06/28 00:53:15;;;;;;;8.05;7.30;;;20.80;99.90;;;;;;4593588;19;20037;-33
2022/06/28 00:54:46;;;;;;;7.53;6.82;;;20.80;99.90;;;;;;4592224;19;20062;-39
2022/06/28 00:56:17;;;;;;;7.47;6.65;;;20.80;99.90;;;;;;4593385;19;20022;-32
2022/06/28 00:57:48;;;;;;;7.70;6.90;;;20.80;99.90;;;;;;4593249;19;20411;-36
2022/06/28 00:59:19;;;;;;;6.70;6.07;;;20.80;99.90;;;;;;4592456;19;20014;-34
2022/06/28 01:00:50;;;;;;;8.82;7.38;;;20.80;99.90;;;;;;4592824;19;20031;-33
2022/06/28 01:02:22;;;;;;;7.45;6.70;;;20.80;99.90;;;;;;4592211;19;20478;-33
2022/06/28 01:03:53;;;;;;;7.40;6.70;;;20.70;99.90;;;;;;4592521;19;20014;-35
2022/06/28 01:05:24;;;;;;;7.60;6.90;;;20.70;99.90;;;;;;4592865;19;19995;-34
2022/06/28 01:06:55;;;;;;;6.97;6.32;;;20.70;99.90;;;;;;4591996;19;20018;-34
2022/06/28 01:08:26;;;;;;;8.00;7.00;;;20.70;99.90;;;;;;4593338;19;20007;-35
2022/06/28 01:09:57;;;;;;;7.57;6.68;;;20.70;99.90;;;;;;4592461;19;20038;-36
2022/06/28 01:11:28;;;;;;;7.93;7.13;;;20.70;99.90;;;;;;4592723;19;20081;-35
2022/06/28 01:12:59;;;;;;;7.95;6.75;;;20.70;99.90;;;;;;4593517;19;20006;-34
2022/06/28 01:14:31;;;;;;;8.52;6.82;;;20.70;99.90;;;;;;4593288;19;20167;-34
2022/06/28 01:16:02;;;;;;;7.65;6.95;;;20.70;99.90;;;;;;4593744;19;20007;-40
2022/06/28 01:17:33;;;;;;;7.47;6.68;;;20.60;99.90;;;;;;4591642;19;20022;-33
2022/06/28 01:19:04;;;;;;;7.38;6.68;;;20.60;99.90;;;;;;4592237;19;20366;-37
2022/06/28 01:20:36;;;;;;;7.25;6.55;;;20.60;99.90;;;;;;4591882;19;20003;-31
2022/06/28 01:22:07;;;;;;;7.07;6.40;;;20.60;99.90;;;;;;4592678;19;20467;-36
2022/06/28 01:23:38;;;;;;;8.00;7.30;;;20.60;99.90;;;;;;4591854;19;20010;-34
2022/06/28 01:25:09;;;;;;;7.75;6.32;;;20.60;99.90;;;;;;4592823;19;20018;-34
2022/06/28 01:26:40;;;;;;;7.35;6.43;;;20.60;99.90;;;;;;4593491;19;20010;-34
2022/06/28 01:28:11;;;;;;;8.02;6.93;;;20.60;99.90;;;;;;4592856;19;19999;-36
2022/06/28 01:29:42;;;;;;;8.45;7.63;;;20.60;99.90;;;;;;4591800;19;20014;-33
2022/06/28 01:31:13;;;;;;;8.02;7.22;;;20.60;99.90;;;;;;4590820;19;20014;-33
2022/06/28 01:32:45;;;;;;;7.57;6.78;;;20.60;99.90;;;;;;4592047;19;20077;-35
2022/06/28 01:34:16;;;;;;;6.85;6.15;;;20.60;99.90;;;;;;4591412;19;20024;-36
2022/06/28 01:35:47;;;;;;;7.18;6.35;;;20.60;99.90;;;;;;4590127;19;20010;-38
2022/06/28 01:37:18;;;;;;;6.28;5.68;;;20.60;99.90;;;;;;4590954;19;20014;-36
2022/06/28 01:38:49;;;;;;;7.68;6.88;;;20.60;99.90;;;;;;4590526;19;20088;-35
2022/06/28 01:40:20;;;;;;;6.88;6.10;;;20.60;99.90;;;;;;4592224;19;20006;-35
2022/06/28 01:41:51;;;;;;;7.22;6.53;;;20.60;99.90;;;;;;4592468;19;20099;-35
2022/06/28 01:43:22;;;;;;;7.32;6.57;;;20.60;99.90;;;;;;4592485;19;20007;-33
2022/06/28 01:44:53;;;;;;;6.88;6.18;;;20.60;99.90;;;;;;4592352;19;20010;-37
2022/06/28 01:46:25;;;;;;;7.05;6.40;;;20.50;99.90;;;;;;4592335;19;20021;-33
2022/06/28 01:47:56;;;;;;;7.75;6.93;;;20.60;99.90;;;;;;4591601;19;20010;-41
2022/06/28 01:49:27;;;;;;;7.03;6.32;;;20.50;99.90;;;;;;4592417;19;20010;-36
2022/06/28 01:50:59;;;;;;;7.55;6.82;;;20.50;99.90;;;;;;4591130;19;20550;-33
2022/06/28 01:52:30;;;;;;;7.57;6.85;;;20.50;99.90;;;;;;4589713;19;20447;-35
2022/06/28 01:54:01;;;;;;;8.00;7.28;;;20.50;99.90;;;;;;4591686;19;20006;-32
2022/06/28 01:55:33;;;;;;;7.75;6.95;;;20.50;99.90;;;;;;4592848;19;20014;-37
2022/06/28 01:57:04;;;;;;;7.35;6.65;;;20.50;99.90;;;;;;4592252;19;20019;-34
2022/06/28 01:58:35;;;;;;;7.50;6.75;;;20.50;99.90;;;;;;4590050;19;20021;-34
2022/06/28 02:00:08;;;;;;;7.60;6.70;;;20.40;99.90;;;;;;4591379;19;20027;-36
2022/06/28 02:01:39;;;;;;;7.65;6.85;;;20.50;99.90;;;;;;4592043;19;19998;-36
2022/06/28 02:03:10;;;;;;;7.03;6.32;;;20.40;99.90;;;;;;4592351;19;20467;-36
2022/06/28 02:04:41;;;;;;;7.32;6.63;;;20.40;99.90;;;;;;4592448;19;20013;-35
2022/06/28 02:06:12;;;;;;;7.20;6.47;;;20.40;99.90;;;;;;4592730;19;20015;-33
2022/06/28 02:07:49;;;;;;;9.13;6.60;;;20.40;99.90;;;;;;4592305;19;20011;-36
2022/06/28 02:09:21;;;;;;;7.30;6.60;;;20.40;99.90;;;;;;4590811;19;20010;-37
2022/06/28 02:10:52;;;;;;;7.25;6.53;;;20.40;99.90;;;;;;4591761;19;20070;-35
2022/06/28 02:12:23;;;;;;;7.65;6.95;;;20.40;99.90;;;;;;4591280;19;20007;-37
2022/06/28 02:13:54;;;;;;;7.38;6.68;;;20.40;99.90;;;;;;4591448;19;20084;-33
2022/06/28 02:15:25;;;;;;;7.38;6.68;;;20.40;99.90;;;;;;4592126;19;20014;-34
2022/06/28 02:16:56;;;;;;;7.13;6.38;;;20.30;99.90;;;;;;4592300;19;20021;-37
2022/06/28 02:18:27;;;;;;;7.60;6.90;;;20.40;99.90;;;;;;4590243;19;20011;-36
2022/06/28 02:19:58;;;;;;;8.20;7.40;;;20.30;99.90;;;;;;4591240;19;20015;-38
2022/06/28 02:21:37;;;;;;;7.65;6.78;;;20.30;99.90;;;;;;4590884;19;20018;-34
2022/06/28 02:23:08;;;;;;;8.15;7.35;;;20.30;99.90;;;;;;4591286;19;20345;-34
2022/06/28 02:24:39;;;;;;;7.55;6.85;;;20.30;99.90;;;;;;4591948;19;20047;-34
2022/06/28 02:26:11;;;;;;;8.10;7.30;;;20.30;99.90;;;;;;4591598;19;20007;-32
2022/06/28 02:27:43;;;;;;;7.65;6.88;;;20.30;99.90;;;;;;4592085;19;20006;-37
2022/06/28 02:29:14;;;;;;;7.65;6.95;;;20.30;99.90;;;;;;4591698;19;20022;-33
2022/06/28 02:30:45;;;;;;;7.78;7.07;;;20.30;99.90;;;;;;4591839;19;20062;-33
2022/06/28 02:32:16;;;;;;;9.02;8.18;;;20.30;99.90;;;;;;4591663;19;20094;-33
2022/06/28 02:33:47;;;;;;;8.60;7.80;;;20.30;99.90;;;;;;4591992;19;20018;-37
2022/06/28 02:40:21;;;;;;;8.38;7.53;;;20.20;99.90;;;;;;4590319;19;20014;-36
2022/06/28 02:41:00;;;;;;;7.47;6.78;;;20.20;99.90;;;;;;4591098;19;20010;-37
2022/06/28 02:42:31;;;;;;;8.57;7.80;;;20.20;99.90;;;;;;4588578;19;20027;-34
2022/06/28 02:44:03;;;;;;;7.57;6.93;;;20.20;99.90;;;;;;4590799;19;20505;-32
2022/06/28 02:45:35;;;;;;;7.43;6.72;;;20.20;99.90;;;;;;4591840;19;20014;-32
2022/06/28 02:47:06;;;;;;;7.82;7.13;;;20.20;99.90;;;;;;4591160;19;20018;-32
2022/06/28 02:48:37;;;;;;;7.82;7.13;;;20.20;99.90;;;;;;4591496;19;20010;-39
2022/06/28 02:50:09;;;;;;;8.68;7.78;;;20.20;99.90;;;;;;4590172;19;20014;-33
2022/06/28 02:51:40;;;;;;;;;;;20.20;99.90;;;;;;4591609;19;20087;-36
2022/06/28 02:53:11;;;;;;;8.57;7.68;;;20.20;99.90;;;;;;4591207;19;20124;-39
2022/06/28 02:54:42;;;;;;;8.40;7.60;;;20.20;99.90;;;;;;4591126;19;20010;-36
2022/06/28 02:56:14;;;;;;;7.90;7.18;;;20.20;99.90;;;;;;4591275;19;20018;-33
2022/06/28 02:57:45;;;;;;;8.70;7.85;;;20.20;99.90;;;;;;4591688;19;20328;-37
2022/06/28 02:59:16;;;;;;;7.95;7.25;;;20.20;99.90;;;;;;4590945;19;20015;-33
2022/06/28 03:00:48;;;;;;;;;;;20.20;99.90;;;;;;4592099;19;20073;-32
2022/06/28 03:02:19;;;;;;;7.90;7.10;;;20.20;99.90;;;;;;4591791;19;19982;-34
2022/06/28 03:03:50;;;;;;;9.48;7.05;;;20.20;99.90;;;;;;4590706;19;20428;-36
2022/06/28 03:05:21;;;;;;;8.23;7.40;;;20.20;99.90;;;;;;4590916;19;20010;-35
2022/06/28 03:06:52;;;;;;;8.93;8.13;;;20.20;99.90;;;;;;4591228;19;20031;-33
2022/06/28 03:08:23;;;;;;;;;;;20.20;99.90;;;;;;4591249;19;20018;-35
2022/06/28 03:09:54;;;;;;;;;;;20.20;99.90;;;;;;4591334;19;20014;-36
2022/06/28 03:11:25;;;;;;;8.32;7.57;;;20.20;99.90;;;;;;4591191;19;19922;-39
2022/06/28 03:12:56;;;;;;;8.52;7.75;;;20.20;99.90;;;;;;4591500;19;20001;-39
2022/06/28 03:14:28;;;;;;;8.00;7.20;;;20.20;99.90;;;;;;4590841;19;20018;-32
2022/06/28 03:15:58;;;;;;;8.38;7.53;;;20.20;99.90;;;;;;4590365;19;20038;-35
2022/06/28 03:17:29;;;;;;;8.25;7.45;;;20.20;99.90;;;;;;4590984;19;20014;-32
2022/06/28 03:19:00;;;;;;;8.65;7.85;;;20.20;99.90;;;;;;4590452;19;20456;-38
2022/06/28 03:20:32;;;;;;;;;;;20.20;99.90;;;;;;4590228;19;20010;-36
2022/06/28 03:22:03;;;;;;;8.55;7.75;;;20.30;99.90;;;;;;4590198;19;19922;-36
2022/06/28 03:23:34;;;;;;;8.38;7.57;;;20.30;99.90;;;;;;4590983;19;19998;-31
2022/06/28 03:25:06;;;;;;;9.27;8.32;;;20.30;99.90;;;;;;4591160;19;20490;-34
2022/06/28 03:26:37;;;;;;;7.95;7.20;;;20.30;99.90;;;;;;4590374;19;20015;-35
2022/06/28 03:28:08;;;;;;;8.45;7.63;;;20.20;99.90;;;;;;4587808;19;20010;-34
2022/06/28 03:29:39;;;;;;;8.38;7.68;;;20.30;99.90;;;;;;4590232;19;20383;-34
2022/06/28 03:31:10;;;;;;;7.75;7.00;;;20.30;99.90;;;;;;4589551;19;20011;-33
2022/06/28 03:32:42;;;;;;;7.70;7.00;;;20.30;99.90;;;;;;4590063;19;20590;-36
2022/06/28 03:34:13;;;;;;;8.97;8.17;;;20.30;99.90;;;;;;4590947;19;20006;-36
2022/06/28 03:35:44;;;;;;;8.48;7.70;;;20.30;99.90;;;;;;4590329;19;20094;-34
2022/06/28 03:37:15;;;;;;;8.45;7.70;;;20.30;99.90;;;;;;4590976;19;20103;-32
2022/06/28 03:38:46;;;;;;;8.45;7.75;;;20.30;99.90;;;;;;4589066;19;20372;-33
2022/06/28 03:40:17;;;;;;;8.73;7.93;;;20.30;99.90;;;;;;4589829;19;20495;-37
2022/06/28 03:41:48;;;;;;;8.68;7.88;;;20.30;99.90;;;;;;4588680;19;20010;-36
2022/06/28 03:43:19;;;;;;;8.30;7.50;;;20.30;99.90;;;;;;4587895;19;20010;-39
2022/06/28 03:44:51;;;;;;;;;;;20.40;99.90;;;;;;4588142;19;20421;-35
2022/06/28 03:46:22;;;;;;;;;;;20.40;99.90;;;;;;4587832;19;19925;-39
2022/06/28 03:47:53;;;;;;;7.88;7.15;;;20.40;99.90;;;;;;4591479;19;20064;-35
2022/06/28 03:49:24;;;;;;;8.23;7.47;;;20.40;99.90;;;;;;4590609;19;20011;-36
2022/06/28 03:50:55;;;;;;;8.55;7.68;;;20.40;99.90;;;;;;4589626;19;20014;-33
2022/06/28 03:52:29;;;;;;;9.13;8.23;;;20.40;99.90;;;;;;4589869;19;20011;-39
2022/06/28 03:54:00;;;;;;;9.20;8.40;;;20.40;99.90;;;;;;4590852;19;20092;-39
2022/06/28 03:55:31;;;;;;;9.82;8.77;;;20.40;99.90;;;;;;4593833;19;20007;-32
2022/06/28 03:57:03;;;;;;;8.27;7.57;;;20.40;99.90;;;;;;4593683;19;20031;-33
2022/06/28 03:58:34;;;;;;;8.40;7.38;;;20.50;99.90;;;;;;4592402;19;20011;-32
2022/06/28 04:00:05;;;;;;;8.85;7.97;;;20.50;99.90;;;;;;4595431;19;20028;-33
2022/06/28 04:01:36;;;;;;;8.77;7.97;;;20.60;99.90;;;;;;4594572;19;20014;-34
2022/06/28 04:03:08;;;;;;;9.32;8.45;;;20.60;99.90;;;;;;4595142;19;20018;-39
2022/06/28 04:04:39;;;;;;;8.90;8.10;;;20.60;99.90;;;;;;4595292;19;20007;-35
2022/06/28 04:06:11;;;;;;;8.27;7.47;;;20.60;99.90;;;;;;4595259;19;20086;-36
2022/06/28 04:07:42;;;;;;;8.55;7.65;;;20.70;99.90;;;;;;4594284;19;20017;-41
2022/06/28 04:09:13;;;;;;;8.10;7.38;;;20.70;99.90;;;;;;4592592;19;20536;-37
2022/06/28 04:10:45;;;;;;;8.57;7.78;;;20.60;99.90;;;;;;4593186;19;20478;-35
2022/06/28 04:12:16;;;;;;;8.07;7.28;;;20.60;99.90;;;;;;4591982;19;20010;-32
2022/06/28 04:13:48;;;;;;;;;;;20.70;99.90;;;;;;4593565;19;20038;-32
2022/06/28 04:15:19;;;;;;;8.63;7.82;;;20.70;99.90;;;;;;4595341;19;19926;-32
2022/06/28 04:16:50;;;;;;;10.48;8.05;;;20.70;99.90;;;;;;4594695;19;20035;-38
2022/06/28 04:18:21;;;;;;;9.73;8.50;;;20.70;99.90;;;;;;4594198;19;20348;-31
2022/06/28 04:19:52;;;;;;;8.95;7.97;;;20.70;99.90;;;;;;4594665;19;20007;-39
2022/06/28 04:21:23;;;;;;;9.93;8.70;;;20.70;99.90;;;;;;4591925;19;20014;-35
2022/06/28 04:22:54;;;;;;;8.77;7.90;;;20.80;99.90;;;;;;4591940;19;20015;-34
2022/06/28 04:24:25;;;;;;;7.30;6.70;;;20.80;99.90;;;;;;4592865;19;20011;-34
2022/06/28 04:25:56;;;;;;;8.07;7.28;;;20.80;99.90;;;;;;4592794;19;20023;-33
2022/06/28 04:27:28;;;;;;;8.43;7.35;;;20.80;99.90;;;;;;4592625;19;20035;-33
2022/06/28 04:28:59;;;;;;;7.80;7.10;;;20.80;99.90;;;;;;4592003;19;20014;-37
2022/06/28 04:30:31;;;;;;;9.02;8.13;;;20.80;99.90;;;;;;4591909;19;20014;-41
2022/06/28 04:32:02;;;;;;;8.10;7.32;;;20.80;99.90;;;;;;4595085;19;20014;-34
2022/06/28 04:33:34;;;;;;;8.13;7.32;;;20.80;99.90;;;;;;4594244;19;20018;-38
2022/06/28 04:35:06;;;;;;;8.57;7.78;;;20.70;99.90;;;;;;4593915;19;20015;-32
2022/06/28 04:36:38;;;;;;;8.13;7.32;;;20.80;99.90;;;;;;4591751;19;20010;-34
2022/06/28 04:38:09;;;;;;;8.77;7.97;;;20.80;99.90;;;;;;4592003;19;20098;-32
2022/06/28 04:39:40;;;;;;;8.50;7.70;;;20.80;99.90;;;;;;4591765;19;20494;-35
2022/06/28 04:41:11;;;;;;;9.32;8.43;;;20.80;99.90;;;;;;4592276;19;20022;-33
2022/06/28 04:42:42;;;;;;;8.93;8.15;;;20.80;99.90;;;;;;4592104;19;20006;-33
2022/06/28 04:44:13;;;;;;;8.90;8.10;;;20.80;99.90;;;;;;4592469;19;20027;-35
2022/06/28 04:45:44;;;;;;;8.52;7.72;;;20.80;99.90;;;;;;4593709;19;20018;-32
2022/06/28 04:47:15;;;;;;;9.10;8.30;;;20.70;99.90;;;;;;4593619;19;20479;-35
2022/06/28 04:48:47;;;;;;;8.98;8.07;;;20.80;99.90;;;;;;4593017;19;20010;-34
2022/06/28 04:50:18;;;;;;;9.95;9.05;;;20.80;99.90;;;;;;4592866;19;20021;-35
2022/06/28 04:51:49;;;;;;;8.80;8.00;;;20.80;99.90;;;;;;4592634;19;20549;-31
2022/06/28 04:53:20;;;;;;;8.93;8.02;;;20.80;99.90;;;;;;4591847;19;20032;-35
2022/06/28 04:54:51;;;;;;;8.80;8.00;;;20.70;99.90;;;;;;4591926;19;20015;-34
2022/06/28 04:56:24;;;;;;;9.32;8.43;;;20.70;99.90;;;;;;4594382;19;20023;-36
2022/06/28 04:57:56;;;;;;;9.00;8.10;;;20.70;99.90;;;;;;4593575;19;20081;-37
2022/06/28 04:59:27;;;;;;;9.85;8.57;;;20.70;99.90;;;;;;4593466;19;20021;-40
2022/06/28 05:00:58;;;;;;;10.30;9.20;;;20.70;99.90;;;;;;4592631;19;20463;-34
2022/06/28 05:02:29;;;;;;;8.50;7.70;;;20.70;99.90;;;;;;4592731;19;20022;-32
2022/06/28 05:04:00;;;;;;;9.23;8.43;;;20.70;99.90;;;;;;4592467;19;20022;-34
2022/06/28 05:05:31;;;;;;;9.27;8.45;;;20.70;99.90;;;;;;4590633;19;20011;-34
2022/06/28 05:07:03;;;;;;;8.43;7.68;;;20.70;99.90;;;;;;4591843;19;20015;-36
2022/06/28 05:08:34;;;;;;;9.70;8.80;;;20.70;99.90;;;;;;4590022;19;20022;-37
2022/06/28 05:10:06;;;;;;;9.75;8.85;;;20.70;99.90;;;;;;4591094;19;20066;-32
2022/06/28 05:11:37;;;;;;;;;;;20.70;99.90;;;;;;4595193;19;20034;-34
2022/06/28 05:13:08;;;;;;;9.20;8.30;;;20.70;99.90;;;;;;4593071;19;19918;-36
2022/06/28 05:14:39;;;;;;;8.50;7.70;;;20.70;99.90;;;;;;4592908;19;20014;-37
2022/06/28 05:16:11;;;;;;;9.60;8.60;;;20.70;99.90;;;;;;4592780;19;20010;-31
2022/06/28 05:17:42;;;;;;;9.07;8.20;;;20.70;99.90;;;;;;4592974;19;20014;-37
2022/06/28 05:19:13;;;;;;;9.98;9.07;;;20.70;99.90;;;;;;4590391;19;20027;-36
2022/06/28 05:20:44;;;;;;;9.50;8.60;;;20.70;99.90;;;;;;4591575;19;20018;-38
2022/06/28 05:22:16;;;;;;;10.32;9.43;;;20.70;99.90;;;;;;4590913;19;20022;-32
2022/06/28 05:23:47;;;;;;;8.88;7.88;;;20.80;99.90;;;;;;4589218;19;20006;-33
2022/06/28 05:25:18;;;;;;;9.98;9.07;;;20.70;99.90;;;;;;4592843;19;20010;-37
2022/06/28 05:26:49;;;;;;;9.93;8.93;;;20.70;99.90;;;;;;4592297;19;20010;-34
2022/06/28 05:28:21;;;;;;;10.40;8.35;;;20.80;99.90;;;;;;4590474;19;20019;-37
2022/06/28 05:29:52;;;;;;;9.63;8.63;;;20.70;99.90;;;;;;4591222;19;20025;-35
2022/06/28 05:31:23;;;;;;;9.43;8.52;;;20.80;99.90;;;;;;4591646;19;20031;-38
2022/06/28 05:32:54;;;;;;;9.88;8.98;;;20.80;99.90;;;;;;4590902;19;20025;-34
2022/06/28 05:34:26;;;;;;;9.45;8.55;;;20.80;99.90;;;;;;4591277;19;20014;-37
2022/06/28 05:35:57;;;;;;;9.80;8.82;;;20.80;99.90;;;;;;4589957;19;20010;-32
2022/06/28 05:37:28;;;;;;;9.55;8.65;;;20.80;99.90;;;;;;4590044;19;20484;-38
2022/06/28 05:38:59;;;;;;;9.75;8.85;;;20.80;99.90;;;;;;4589185;19;20015;-32
2022/06/28 05:40:31;;;;;;;10.40;9.40;;;20.80;99.90;;;;;;4592812;19;20110;-35
2022/06/28 05:42:02;;;;;;;9.80;8.90;;;20.80;99.90;;;;;;4591593;19;20047;-39
2022/06/28 05:43:33;;;;;;;10.15;9.15;;;20.80;99.90;;;;;;4591970;19;20020;-36
2022/06/28 05:45:05;;;;;;;9.30;8.45;;;20.80;99.90;;;;;;4590958;19;20082;-37
2022/06/28 05:46:36;;;;;;;9.63;8.70;;;20.90;99.90;;;;;;4590054;19;20018;-36
2022/06/28 05:48:08;;;;;;;10.18;9.20;;;20.90;99.90;;;;;;4587879;19;20109;-36
2022/06/28 05:49:39;;;;;;;9.55;8.68;;;20.90;99.90;;;;;;4588107;19;20014;-34
2022/06/28 05:51:10;;;;;;;9.18;8.38;;;20.90;99.90;;;;;;4590970;19;20583;-36
2022/06/28 05:52:41;;;;;;;9.60;8.70;;;20.90;99.90;;;;;;4590218;19;20018;-31
2022/06/28 05:54:12;;;;;;;9.90;8.95;;;20.90;99.90;;;;;;4589842;19;20479;-33
2022/06/28 05:55:43;;;;;;;9.23;8.32;;;20.90;99.90;;;;;;4589769;19;20020;-38
2022/06/28 05:57:14;;;;;;;10.27;9.27;;;20.90;99.90;;;;;;4589393;19;20644;-34
2022/06/28 05:58:46;;;;;;;10.30;9.30;;;20.90;99.90;;;;;;4587511;19;20085;-35
2022/06/28 06:00:17;;;;;;;9.18;8.35;;;21.00;99.90;;;;;;4588503;19;20320;-33
2022/06/28 06:01:48;;;;;;;9.00;8.20;;;21.00;99.90;;;;;;4587902;19;20466;-36
2022/06/28 06:03:19;;;;;;;10.38;9.38;;;21.00;99.90;;;;;;4588556;19;20011;-30
2022/06/28 06:04:50;;;;;;;10.02;9.00;;;21.10;99.90;;;;;;4590548;19;20484;-33
2022/06/28 06:06:23;;;;;;;9.88;8.93;;;21.10;99.90;;;;;;4590084;19;20526;-33
2022/06/28 06:07:54;;;;;;;9.57;8.63;;;21.10;99.90;;;;;;4590217;19;20464;-39
2022/06/28 06:09:25;;;;;;;8.98;8.07;;;21.10;99.90;;;;;;4589461;19;20490;-33
2022/06/28 06:10:56;;;;;;;10.13;8.07;;;21.10;99.90;;;;;;4589092;19;20022;-36
2022/06/28 06:12:42;;;;;;;11.30;8.25;;;21.10;99.90;;;;;;4589414;19;20023;-35
2022/06/28 06:14:16;;;;;;;10.93;7.68;;;21.10;99.90;;;;;;4588848;19;20355;-36
2022/06/28 06:15:47;;;;;;;8.55;7.75;;;21.10;99.90;;;;;;4588976;19;20507;-38
2022/06/28 06:17:19;;;;;;;9.18;8.38;;;21.10;99.90;;;;;;4586166;19;20019;-35
2022/06/28 06:18:50;;;;;;;8.48;7.68;;;21.10;99.90;;;;;;4586160;19;20053;-34
2022/06/28 06:20:21;;;;;;;8.57;7.78;;;21.10;99.90;;;;;;4588317;19;20093;-35
2022/06/28 06:21:52;;;;;;;8.45;7.50;;;21.10;99.90;;;;;;4589879;19;20123;-36
2022/06/28 06:23:23;;;;;;;8.65;7.85;;;21.10;99.90;;;;;;4590233;19;20041;-32
2022/06/28 06:24:55;;;;;;;8.73;7.93;;;21.10;99.90;;;;;;4589230;19;20011;-36
2022/06/28 06:26:26;;;;;;;8.82;8.05;;;21.10;99.90;;;;;;4590047;19;20495;-38
2022/06/28 06:27:57;;;;;;;9.45;8.65;;;21.10;99.90;;;;;;4588370;19;20102;-39
2022/06/28 06:29:29;;;;;;;9.35;8.45;;;21.10;99.90;;;;;;4588254;19;20045;-35
2022/06/28 06:31:01;;;;;;;9.40;8.20;;;21.20;99.90;;;;;;4587666;19;20062;-37
2022/06/28 06:32:32;;;;;;;9.40;8.20;;;21.20;99.90;;;;;;4587348;19;20082;-36
2022/06/28 06:34:03;;;;;;;;;;;21.20;99.90;;;;;;4588026;19;20018;-34
2022/06/28 06:35:35;;;;;;;8.70;7.90;;;21.20;99.90;;;;;;4587124;19;19914;-38
2022/06/28 06:37:06;;;;;;;9.93;9.02;;;21.20;99.90;;;;;;4590513;19;20011;-34
2022/06/28 06:38:37;;;;;;;9.13;8.20;;;21.20;99.90;;;;;;4587319;19;20494;-39
2022/06/28 06:40:09;;;;;;;9.00;8.20;;;21.20;99.90;;;;;;4588993;19;20010;-34
2022/06/28 06:41:40;;;;;;;9.68;8.70;;;21.20;99.90;;;;;;4589268;19;20088;-35
2022/06/28 06:43:11;;;;;;;9.38;8.55;;;21.20;99.90;;;;;;4589672;19;20002;-36
2022/06/28 06:44:42;;;;;;;8.95;8.15;;;21.20;99.90;;;;;;4588765;19;20015;-37
2022/06/28 06:46:14;;;;;;;11.15;9.07;;;21.30;99.90;;;;;;4589150;19;20546;-32
2022/06/28 06:47:45;;;;;;;10.20;9.20;;;21.30;99.90;;;;;;4589268;19;20002;-38
2022/06/28 06:49:17;;;;;;;9.30;8.45;;;21.30;99.90;;;;;;4588999;19;20017;-36
2022/06/28 06:50:48;;;;;;;9.32;8.50;;;21.30;99.90;;;;;;4588762;19;20041;-35
2022/06/28 06:52:19;;;;;;;10.88;8.88;;;21.30;99.90;;;;;;4589002;19;20025;-41
2022/06/28 06:53:51;;;;;;;;;;;21.30;99.90;;;;;;4589967;19;20025;-35
2022/06/28 06:55:22;;;;;;;10.53;9.53;;;21.40;99.90;;;;;;4589437;19;19914;-36
2022/06/28 06:56:53;;;;;;;11.35;10.30;;;21.40;99.90;;;;;;4588803;19;20049;-40
2022/06/28 06:58:24;;;;;;;10.55;9.45;;;21.40;99.90;;;;;;4587975;19;20471;-38
2022/06/28 06:59:55;;;;;;;10.68;9.77;;;21.40;99.90;;;;;;4590505;19;20085;-37
2022/06/28 07:01:29;;;;;;;10.02;9.13;;;21.40;99.90;;;;;;4590449;19;20018;-35
2022/06/28 07:03:02;;;;;;;10.38;9.35;;;21.40;99.90;;;;;;4590922;19;20015;-34
2022/06/28 07:04:33;;;;;;;10.88;9.88;;;21.40;99.90;;;;;;4590478;19;20035;-34
2022/06/28 07:06:04;;;;;;;9.80;8.90;;;21.40;99.90;;;;;;4590338;19;20002;-40
2022/06/28 07:07:35;;;;;;;;;;;21.40;99.90;;;;;;4589367;19;20104;-38
2022/06/28 07:09:06;;;;;;;;;;;21.40;99.90;;;;;;4592450;19;20333;-33
2022/06/28 07:10:37;;;;;;;;;;;21.40;99.90;;;;;;4591994;19;19919;-34
2022/06/28 07:12:08;;;;;;;;;;;21.50;99.90;;;;;;4592125;19;19986;-33
2022/06/28 07:13:39;;;;;;;;;;;21.50;99.90;;;;;;4590022;19;19922;-36
2022/06/28 07:15:10;;;;;;;;;;;21.50;99.90;;;;;;4589801;19;19915;-35
2022/06/28 07:16:42;;;;;;;;;;;21.50;99.90;;;;;;4589899;19;20293;-40
2022/06/28 07:18:15;;;;;;;;;;;21.50;99.90;;;;;;4588679;19;19950;-36
2022/06/28 07:19:45;;;;;;;;;;;21.50;99.90;;;;;;4592015;19;19918;-35
2022/06/28 07:21:16;;;;;;;;;;;21.50;99.90;;;;;;4591707;19;19931;-35
2022/06/28 07:22:47;;;;;;;;;;;21.50;99.90;;;;;;4591817;19;19982;-34
2022/06/28 07:24:18;;;;;;;;;;;21.50;99.90;;;;;;4590803;19;20241;-37
2022/06/28 07:25:49;;;;;;;;;;;21.60;99.90;;;;;;4590841;19;19987;-40
2022/06/28 07:27:20;;;;;;;;;;;21.50;99.90;;;;;;4590600;19;20313;-34
2022/06/28 07:28:51;;;;;;;;;;;21.50;99.90;;;;;;4589592;19;19907;-34
2022/06/28 07:30:23;;;;;;;;;;;21.50;99.90;;;;;;4587086;19;19927;-34
2022/06/28 07:31:54;;;;;;;;;;;21.60;99.90;;;;;;4587117;19;19925;-35
2022/06/28 07:33:25;;;;;;;;;;;21.60;99.90;;;;;;4587259;19;19925;-37
2022/06/28 07:34:56;;;;;;;;;;;21.60;99.90;;;;;;4590057;19;19919;-36
2022/06/28 07:36:28;;;;;;;;;;;21.60;99.90;;;;;;4589096;19;19918;-39
2022/06/28 07:37:59;;;;;;;;;;;21.60;99.90;;;;;;4587608;19;20399;-35
2022/06/28 07:39:36;;;;;;;;;;;21.60;99.90;;;;;;4586528;19;20164;-34
2022/06/28 07:41:07;;;;;;;;;;;21.50;99.90;;;;;;4588868;19;19915;-39
2022/06/28 07:42:38;;;;;;;;;;;21.60;99.90;;;;;;4585469;19;20492;-39
2022/06/28 07:44:09;;;;;;;;;;;21.60;99.90;;;;;;4588559;19;19922;-38
2022/06/28 07:45:40;;;;;;;;;;;21.60;99.90;;;;;;4589252;19;20270;-40
2022/06/28 07:47:11;;;;;;;;;;;21.60;99.90;;;;;;4588660;19;19918;-35
2022/06/28 07:48:43;;;;;;;;;;;21.60;99.90;;;;;;4589338;19;20648;-36
2022/06/28 07:53:53;;;;;;;;;;;21.50;99.90;;;;;;4589417;19;20234;-35
2022/06/28 07:55:24;;;;;;;;;;;21.50;99.90;;;;;;4588715;19;19924;-35
2022/06/28 07:56:55;;;;;;;;;;;21.50;99.90;;;;;;4588673;19;19919;-34
2022/06/28 07:58:26;;;;;;;;;;;21.50;99.90;;;;;;4588174;19;19918;-33
2022/06/28 07:59:57;;;;;;;;;;;21.50;99.90;;;;;;4588742;19;19929;-33
2022/06/28 08:01:28;;;;;;;;;;;21.50;99.90;;;;;;4591223;19;19911;-39
2022/06/28 08:02:59;;;;;;;;;;;21.60;99.90;;;;;;4590832;19;19945;-36
2022/06/28 08:04:30;;;;;;;;;;;21.60;99.90;;;;;;4591022;19;19910;-37
2022/06/28 08:06:01;;;;;;;;;;;21.60;99.90;;;;;;4590623;19;19919;-36
2022/06/28 08:07:32;;;;;;;;;;;21.70;99.90;;;;;;4590380;19;19970;-40
2022/06/28 08:09:03;;;;;;;;;;;21.60;99.90;;;;;;4590724;19;20249;-40
2022/06/28 08:10:34;;;;;;;;;;;21.70;99.90;;;;;;4589811;19;20281;-39
2022/06/28 08:12:05;;;;;;;;;;;21.70;99.90;;;;;;4589791;19;19974;-34
2022/06/28 08:13:37;;;;;;;;;;;21.70;99.90;;;;;;4590543;19;19919;-41